logo
Rechercher aéroport 
image banner adimage banner adimage banner ad
image banner ad

YFLI - Flinders Island

Situé à Whitemark, Australia

ICAO - YFLI, IATA - FLS

Données fournies par Airmate  

Information générale

Coordonnées: S40°5'39" E147°59'38"
Élévation : 34 feet MSL.
Variation magnétique : 14° East
Voir autres Aéroports à Tasmania

Données opérationnelles

Special qualification required
Heure actuelle UTC:
Heure actuelle locale:
Météo à : - ( 0 km )
METAR: CYQG 282108Z AUTO 08006KT 040V120 9SM SCT050 BKN066 BKN086 21/10 A2988 RMK LTNG DIST ALQDS SLP118 DENSITY ALT 1600FT
Voir NOTAMs / SUP AIP / TFR affectant cet aéroport [VIEW]
Fréquences de communication: [VIEW]

Pistes:

Identifiant RWYQFULongueur (ft)Largeur (ft)SurfaceLDA (ft)
0561°351098B
23241°351098B
14144°564398X
32324°564398X

Coordonnées de l'aéroport

Adresse: Whitemark Australia

Autres services d'aviation

Clubs d'aviation (sans but lucratif)

Flinders Island Aviation

Flinders Island Aviation
flindersislandaviation@bigpond.com+61363593641
+61400734605

Vue satellite de YFLI